sensor_id;sensor_type;location;lat;lon;timestamp;pressure;altitude;pressure_sealevel;temperature;humidity
74103;BME280;62853;46.166;3.640;2022-09-14T00:00:43;100694.03;;;16.45;100.00
74103;BME280;62853;46.166;3.640;2022-09-14T00:03:09;100696.59;;;16.35;100.00
74103;BME280;62853;46.166;3.640;2022-09-14T00:05:34;100694.69;;;16.38;100.00
74103;BME280;62853;46.166;3.640;2022-09-14T00:08:00;100694.72;;;16.26;100.00
74103;BME280;62853;46.166;3.640;2022-09-14T00:10:25;100696.84;;;16.32;100.00
74103;BME280;62853;46.166;3.640;2022-09-14T00:12:51;100711.84;;;16.22;100.00
74103;BME280;62853;46.166;3.640;2022-09-14T00:15:16;100702.81;;;16.25;100.00
74103;BME280;62853;46.166;3.640;2022-09-14T00:17:42;100704.41;;;16.16;100.00
74103;BME280;62853;46.166;3.640;2022-09-14T00:20:08;100710.44;;;16.18;100.00
74103;BME280;62853;46.166;3.640;2022-09-14T00:22:33;100704.16;;;16.08;100.00
74103;BME280;62853;46.166;3.640;2022-09-14T00:24:59;100705.50;;;16.02;100.00
74103;BME280;62853;46.166;3.640;2022-09-14T00:27:24;100703.81;;;16.12;100.00
74103;BME280;62853;46.166;3.640;2022-09-14T00:29:49;100697.13;;;16.29;100.00
74103;BME280;62853;46.166;3.640;2022-09-14T00:32:15;100697.59;;;16.23;100.00
74103;BME280;62853;46.166;3.640;2022-09-14T00:34:40;100693.13;;;16.24;100.00
74103;BME280;62853;46.166;3.640;2022-09-14T00:37:05;100686.88;;;16.13;100.00
74103;BME280;62853;46.166;3.640;2022-09-14T00:39:31;100675.03;;;16.17;100.00
74103;BME280;62853;46.166;3.640;2022-09-14T00:41:56;100676.38;;;16.12;100.00
74103;BME280;62853;46.166;3.640;2022-09-14T00:46:49;100659.25;;;16.05;100.00
74103;BME280;62853;46.166;3.640;2022-09-14T00:49:21;100652.75;;;15.97;100.00
74103;BME280;62853;46.166;3.640;2022-09-14T00:51:54;100642.13;;;15.97;100.00
74103;BME280;62853;46.166;3.640;2022-09-14T00:54:23;100640.09;;;15.78;100.00
74103;BME280;62853;46.166;3.640;2022-09-14T00:56:48;100638.03;;;15.82;100.00
74103;BME280;62853;46.166;3.640;2022-09-14T00:59:25;100640.94;;;15.90;100.00
74103;BME280;62853;46.166;3.640;2022-09-14T01:01:52;100644.31;;;15.92;100.00
74103;BME280;62853;46.166;3.640;2022-09-14T01:04:18;100645.25;;;15.80;100.00
74103;BME280;62853;46.166;3.640;2022-09-14T01:07:02;100640.06;;;15.67;100.00
74103;BME280;62853;46.166;3.640;2022-09-14T01:13:55;100635.97;;;15.63;100.00
74103;BME280;62853;46.166;3.640;2022-09-14T01:18:53;100625.47;;;15.61;100.00
74103;BME280;62853;46.166;3.640;2022-09-14T01:29:00;100641.88;;;15.67;100.00
74103;BME280;62853;46.166;3.640;2022-09-14T01:31:44;100630.41;;;15.66;100.00
74103;BME280;62853;46.166;3.640;2022-09-14T01:34:15;100633.94;;;15.55;100.00
74103;BME280;62853;46.166;3.640;2022-09-14T01:36:47;100643.09;;;15.51;100.00
74103;BME280;62853;46.166;3.640;2022-09-14T01:39:17;100638.63;;;15.63;100.00
74103;BME280;62853;46.166;3.640;2022-09-14T01:41:45;100632.09;;;15.44;100.00
74103;BME280;62853;46.166;3.640;2022-09-14T01:44:25;100630.28;;;15.56;100.00
74103;BME280;62853;46.166;3.640;2022-09-14T01:46:54;100637.31;;;15.57;100.00
74103;BME280;62853;46.166;3.640;2022-09-14T01:49:38;100631.41;;;15.54;100.00
74103;BME280;62853;46.166;3.640;2022-09-14T01:52:13;100640.06;;;15.56;100.00
74103;BME280;62853;46.166;3.640;2022-09-14T01:54:53;100635.38;;;15.59;100.00
74103;BME280;62853;46.166;3.640;2022-09-14T01:57:44;100633.22;;;15.42;100.00
74103;BME280;62853;46.166;3.640;2022-09-14T02:00:15;100624.66;;;15.38;100.00
74103;BME280;62853;46.166;3.640;2022-09-14T02:03:10;100625.22;;;15.31;100.00
74103;BME280;62853;46.166;3.640;2022-09-14T02:05:53;100627.78;;;15.43;100.00
74103;BME280;62853;46.166;3.640;2022-09-14T02:08:24;100624.53;;;15.40;100.00
74103;BME280;62853;46.166;3.640;2022-09-14T02:10:51;100621.25;;;15.48;100.00
74103;BME280;62853;46.166;3.640;2022-09-14T02:13:16;100616.06;;;15.46;100.00
74103;BME280;62853;46.166;3.640;2022-09-14T02:15:41;100619.94;;;15.42;100.00
74103;BME280;62853;46.166;3.640;2022-09-14T02:18:07;100621.50;;;15.22;100.00
74103;BME280;62853;46.166;3.640;2022-09-14T02:20:43;100627.78;;;15.32;100.00
74103;BME280;62853;46.166;3.640;2022-09-14T02:23:11;100619.94;;;15.31;100.00
74103;BME280;62853;46.166;3.640;2022-09-14T02:25:36;100626.81;;;15.33;100.00
74103;BME280;62853;46.166;3.640;2022-09-14T02:28:05;100621.13;;;15.38;100.00
74103;BME280;62853;46.166;3.640;2022-09-14T02:30:36;100635.00;;;15.53;100.00
74103;BME280;62853;46.166;3.640;2022-09-14T02:33:14;100631.28;;;15.55;100.00
74103;BME280;62853;46.166;3.640;2022-09-14T02:35:53;100643.56;;;15.56;100.00
74103;BME280;62853;46.166;3.640;2022-09-14T02:43:32;100625.72;;;15.47;100.00
74103;BME280;62853;46.166;3.640;2022-09-14T02:48:53;100619.09;;;15.41;100.00
74103;BME280;62853;46.166;3.640;2022-09-14T02:51:35;100616.81;;;15.48;100.00
74103;BME280;62853;46.166;3.640;2022-09-14T02:54:17;100616.09;;;15.35;100.00
74103;BME280;62853;46.166;3.640;2022-09-14T02:56:45;100610.78;;;15.35;100.00
74103;BME280;62853;46.166;3.640;2022-09-14T02:59:10;100602.19;;;15.31;100.00
74103;BME280;62853;46.166;3.640;2022-09-14T03:01:36;100604.97;;;15.18;100.00
74103;BME280;62853;46.166;3.640;2022-09-14T03:04:02;100606.91;;;15.16;100.00
74103;BME280;62853;46.166;3.640;2022-09-14T03:06:27;100601.84;;;15.24;100.00
74103;BME280;62853;46.166;3.640;2022-09-14T03:08:52;100602.56;;;15.27;100.00
74103;BME280;62853;46.166;3.640;2022-09-14T03:11:18;100594.00;;;15.12;100.00
74103;BME280;62853;46.166;3.640;2022-09-14T03:13:43;100596.91;;;15.20;100.00
74103;BME280;62853;46.166;3.640;2022-09-14T03:16:12;100598.94;;;15.16;100.00
74103;BME280;62853;46.166;3.640;2022-09-14T03:18:37;100597.84;;;15.19;100.00
74103;BME280;62853;46.166;3.640;2022-09-14T03:21:14;100601.00;;;15.13;100.00
74103;BME280;62853;46.166;3.640;2022-09-14T03:23:48;100599.31;;;15.23;100.00
74103;BME280;62853;46.166;3.640;2022-09-14T03:26:17;100597.38;;;15.25;100.00
74103;BME280;62853;46.166;3.640;2022-09-14T03:28:43;100584.13;;;15.25;100.00
74103;BME280;62853;46.166;3.640;2022-09-14T03:31:10;100583.16;;;15.15;100.00
74103;BME280;62853;46.166;3.640;2022-09-14T03:33:36;100580.38;;;15.05;100.00
74103;BME280;62853;46.166;3.640;2022-09-14T03:36:12;100580.88;;;15.21;100.00
74103;BME280;62853;46.166;3.640;2022-09-14T03:38:38;100564.69;;;15.02;100.00
74103;BME280;62853;46.166;3.640;2022-09-14T03:41:10;100561.19;;;14.90;100.00
74103;BME280;62853;46.166;3.640;2022-09-14T03:43:35;100562.50;;;14.96;100.00
74103;BME280;62853;46.166;3.640;2022-09-14T03:46:09;100559.25;;;14.81;100.00
74103;BME280;62853;46.166;3.640;2022-09-14T03:48:35;100550.69;;;14.88;100.00
74103;BME280;62853;46.166;3.640;2022-09-14T03:51:02;100555.25;;;14.75;100.00
74103;BME280;62853;46.166;3.640;2022-09-14T03:53:29;100553.31;;;14.77;100.00
74103;BME280;62853;46.166;3.640;2022-09-14T03:55:54;100548.78;;;14.79;100.00
74103;BME280;62853;46.166;3.640;2022-09-14T03:58:20;100552.13;;;14.81;100.00
74103;BME280;62853;46.166;3.640;2022-09-14T04:00:47;100548.28;;;14.85;100.00
74103;BME280;62853;46.166;3.640;2022-09-14T04:03:12;100542.97;;;14.74;100.00
74103;BME280;62853;46.166;3.640;2022-09-14T04:05:37;100546.34;;;14.76;100.00
74103;BME280;62853;46.166;3.640;2022-09-14T04:08:03;100547.19;;;14.77;100.00
74103;BME280;62853;46.166;3.640;2022-09-14T04:10:28;100542.88;;;14.76;100.00
74103;BME280;62853;46.166;3.640;2022-09-14T04:12:53;100538.50;;;14.75;100.00
74103;BME280;62853;46.166;3.640;2022-09-14T04:15:19;100545.88;;;14.94;100.00
74103;BME280;62853;46.166;3.640;2022-09-14T04:17:44;100542.13;;;14.85;100.00
74103;BME280;62853;46.166;3.640;2022-09-14T04:20:10;100541.19;;;14.86;100.00
74103;BME280;62853;46.166;3.640;2022-09-14T04:22:35;100533.84;;;14.90;100.00
74103;BME280;62853;46.166;3.640;2022-09-14T04:25:01;100540.31;;;14.85;100.00
74103;BME280;62853;46.166;3.640;2022-09-14T04:27:26;100535.50;;;14.91;100.00
74103;BME280;62853;46.166;3.640;2022-09-14T04:29:51;100534.41;;;14.71;100.00
74103;BME280;62853;46.166;3.640;2022-09-14T04:32:17;100535.97;;;14.73;100.00
74103;BME280;62853;46.166;3.640;2022-09-14T04:34:42;100535.00;;;14.63;100.00
74103;BME280;62853;46.166;3.640;2022-09-14T04:37:08;100536.56;;;14.77;100.00
74103;BME280;62853;46.166;3.640;2022-09-14T04:39:33;100539.94;;;14.79;100.00
74103;BME280;62853;46.166;3.640;2022-09-14T04:41:58;100538.75;;;14.72;100.00
74103;BME280;62853;46.166;3.640;2022-09-14T04:44:24;100528.97;;;14.61;100.00
74103;BME280;62853;46.166;3.640;2022-09-14T04:46:49;100519.25;;;14.48;100.00
74103;BME280;62853;46.166;3.640;2022-09-14T04:49:15;100524.22;;;14.53;100.00
74103;BME280;62853;46.166;3.640;2022-09-14T04:51:43;100524.34;;;14.51;100.00
74103;BME280;62853;46.166;3.640;2022-09-14T04:54:13;100531.91;;;14.45;100.00
74103;BME280;62853;46.166;3.640;2022-09-14T04:56:39;100525.19;;;14.52;100.00
74103;BME280;62853;46.166;3.640;2022-09-14T04:59:05;100521.19;;;14.46;100.00
74103;BME280;62853;46.166;3.640;2022-09-14T05:01:37;100519.03;;;14.51;100.00
74103;BME280;62853;46.166;3.640;2022-09-14T05:04:04;100520.94;;;14.38;100.00
74103;BME280;62853;46.166;3.640;2022-09-14T05:06:32;100526.44;;;14.35;100.00
74103;BME280;62853;46.166;3.640;2022-09-14T05:09:00;100526.81;;;14.30;100.00
74103;BME280;62853;46.166;3.640;2022-09-14T05:11:28;100532.03;;;14.43;100.00
74103;BME280;62853;46.166;3.640;2022-09-14T05:13:55;100532.13;;;14.42;100.00
74103;BME280;62853;46.166;3.640;2022-09-14T05:16:32;100531.50;;;14.27;100.00
74103;BME280;62853;46.166;3.640;2022-09-14T05:18:59;100532.63;;;14.36;100.00
74103;BME280;62853;46.166;3.640;2022-09-14T05:21:27;100526.44;;;14.35;100.00
74103;BME280;62853;46.166;3.640;2022-09-14T05:23:57;100532.13;;;14.30;100.00
74103;BME280;62853;46.166;3.640;2022-09-14T05:26:24;100526.31;;;14.25;100.00
74103;BME280;62853;46.166;3.640;2022-09-14T05:28:51;100524.75;;;14.23;100.00
74103;BME280;62853;46.166;3.640;2022-09-14T05:31:17;100524.44;;;14.03;100.00
74103;BME280;62853;46.166;3.640;2022-09-14T05:33:43;100521.81;;;14.03;100.00
74103;BME280;62853;46.166;3.640;2022-09-14T05:36:08;100525.16;;;14.05;100.00
74103;BME280;62853;46.166;3.640;2022-09-14T05:38:36;100521.91;;;14.02;100.00
74103;BME280;62853;46.166;3.640;2022-09-14T05:41:03;100519.25;;;14.02;100.00
74103;BME280;62853;46.166;3.640;2022-09-14T05:43:29;100520.81;;;14.04;100.00
74103;BME280;62853;46.166;3.640;2022-09-14T05:45:55;100526.41;;;14.12;100.00
74103;BME280;62853;46.166;3.640;2022-09-14T05:48:20;100518.41;;;14.01;100.00
74103;BME280;62853;46.166;3.640;2022-09-14T05:50:46;100518.41;;;14.01;100.00
74103;BME280;62853;46.166;3.640;2022-09-14T05:53:11;100519.81;;;13.94;100.00
74103;BME280;62853;46.166;3.640;2022-09-14T05:55:36;100516.25;;;14.06;100.00
74103;BME280;62853;46.166;3.640;2022-09-14T05:58:02;100511.44;;;14.11;100.00
74103;BME280;62853;46.166;3.640;2022-09-14T06:00:28;100519.22;;;14.26;100.00
74103;BME280;62853;46.166;3.640;2022-09-14T06:02:54;100507.75;;;14.14;100.00
74103;BME280;62853;46.166;3.640;2022-09-14T06:05:20;100518.56;;;14.11;100.00
74103;BME280;62853;46.166;3.640;2022-09-14T06:07:53;100517.72;;;14.10;100.00
74103;BME280;62853;46.166;3.640;2022-09-14T06:10:19;100529.50;;;14.06;100.00
74103;BME280;62853;46.166;3.640;2022-09-14T06:12:45;100527.94;;;14.04;100.00
74103;BME280;62853;46.166;3.640;2022-09-14T06:15:10;100525.44;;;13.89;100.00
74103;BME280;62853;46.166;3.640;2022-09-14T06:17:36;100522.03;;;14.00;100.00
74103;BME280;62853;46.166;3.640;2022-09-14T06:20:03;100525.34;;;13.91;100.00
74103;BME280;62853;46.166;3.640;2022-09-14T06:22:30;100527.94;;;14.04;100.00
74103;BME280;62853;46.166;3.640;2022-09-14T06:24:55;100532.50;;;14.02;100.00
74103;BME280;62853;46.166;3.640;2022-09-14T06:27:21;100531.53;;;14.03;100.00
74103;BME280;62853;46.166;3.640;2022-09-14T06:29:46;100533.13;;;14.05;100.00
74103;BME280;62853;46.166;3.640;2022-09-14T06:32:19;100534.66;;;13.97;100.00
74103;BME280;62853;46.166;3.640;2022-09-14T06:34:45;100530.34;;;14.07;100.00
74103;BME280;62853;46.166;3.640;2022-09-14T06:37:10;100530.06;;;13.99;100.00
74103;BME280;62853;46.166;3.640;2022-09-14T06:39:36;100527.09;;;14.03;100.00
74103;BME280;62853;46.166;3.640;2022-09-14T06:42:01;100532.00;;;13.97;100.00
74103;BME280;62853;46.166;3.640;2022-09-14T06:44:27;100529.00;;;14.01;100.00
74103;BME280;62853;46.166;3.640;2022-09-14T06:46:52;100526.69;;;13.97;100.00
74103;BME280;62853;46.166;3.640;2022-09-14T06:49:17;100530.41;;;13.94;100.00
74103;BME280;62853;46.166;3.640;2022-09-14T06:51:47;100522.69;;;13.91;100.00
74103;BME280;62853;46.166;3.640;2022-09-14T06:54:14;100521.84;;;13.90;100.00
74103;BME280;62853;46.166;3.640;2022-09-14T06:56:41;100521.41;;;13.97;100.00
74103;BME280;62853;46.166;3.640;2022-09-14T06:59:09;100529.84;;;14.02;100.00
74103;BME280;62853;46.166;3.640;2022-09-14T07:01:35;100517.13;;;14.07;100.00
74103;BME280;62853;46.166;3.640;2022-09-14T07:04:01;100517.94;;;14.07;100.00
74103;BME280;62853;46.166;3.640;2022-09-14T07:06:30;100511.31;;;14.02;100.00
74103;BME280;62853;46.166;3.640;2022-09-14T07:08:56;100510.81;;;13.97;100.00
74103;BME280;62853;46.166;3.640;2022-09-14T07:11:24;100512.22;;;13.89;100.00
74103;BME280;62853;46.166;3.640;2022-09-14T07:13:52;100510.44;;;13.90;100.00
74103;BME280;62853;46.166;3.640;2022-09-14T07:16:19;100502.59;;;13.88;100.00
74103;BME280;62853;46.166;3.640;2022-09-14T07:18:45;100509.84;;;13.98;100.00
74103;BME280;62853;46.166;3.640;2022-09-14T07:21:15;100510.22;;;13.93;100.00
74103;BME280;62853;46.166;3.640;2022-09-14T07:23:43;100505.34;;;13.87;100.00
74103;BME280;62853;46.166;3.640;2022-09-14T07:26:13;100507.66;;;13.91;100.00
74103;BME280;62853;46.166;3.640;2022-09-14T07:28:40;100502.09;;;13.83;100.00
74103;BME280;62853;46.166;3.640;2022-09-14T07:31:32;100503.44;;;13.89;100.00
74103;BME280;62853;46.166;3.640;2022-09-14T07:33:59;100505.75;;;13.93;100.00
74103;BME280;62853;46.166;3.640;2022-09-14T07:36:26;100508.50;;;13.92;100.00
74103;BME280;62853;46.166;3.640;2022-09-14T07:38:54;100495.88;;;13.95;100.00
74103;BME280;62853;46.166;3.640;2022-09-14T07:41:20;100508.16;;;13.97;100.00
74103;BME280;62853;46.166;3.640;2022-09-14T07:43:51;100500.34;;;14.06;100.00
74103;BME280;62853;46.166;3.640;2022-09-14T07:46:17;100502.28;;;14.04;100.00
74103;BME280;62853;46.166;3.640;2022-09-14T07:48:43;100500.63;;;14.03;100.00
74103;BME280;62853;46.166;3.640;2022-09-14T07:51:09;100490.75;;;14.05;100.00
74103;BME280;62853;46.166;3.640;2022-09-14T07:53:37;100490.84;;;14.04;100.00
74103;BME280;62853;46.166;3.640;2022-09-14T07:56:04;100493.78;;;14.12;100.00
74103;BME280;62853;46.166;3.640;2022-09-14T07:58:30;100489.53;;;14.09;100.00
74103;BME280;62853;46.166;3.640;2022-09-14T08:01:05;100489.53;;;14.09;100.00
74103;BME280;62853;46.166;3.640;2022-09-14T08:03:32;100489.09;;;14.16;100.00
74103;BME280;62853;46.166;3.640;2022-09-14T08:06:01;100488.88;;;14.19;100.00
74103;BME280;62853;46.166;3.640;2022-09-14T08:08:28;100481.97;;;14.05;100.00
74103;BME280;62853;46.166;3.640;2022-09-14T08:10:54;100490.03;;;14.03;100.00
74103;BME280;62853;46.166;3.640;2022-09-14T08:13:22;100477.50;;;14.05;100.00
74103;BME280;62853;46.166;3.640;2022-09-14T08:15:48;100477.66;;;14.15;100.00
74103;BME280;62853;46.166;3.640;2022-09-14T08:18:13;100480.59;;;13.99;100.00
74103;BME280;62853;46.166;3.640;2022-09-14T08:20:39;100482.91;;;14.04;100.00
74103;BME280;62853;46.166;3.640;2022-09-14T08:23:04;100483.25;;;13.99;100.00
74103;BME280;62853;46.166;3.640;2022-09-14T08:25:29;100486.13;;;13.96;100.00
74103;BME280;62853;46.166;3.640;2022-09-14T08:27:55;100494.69;;;14.00;100.00
74103;BME280;62853;46.166;3.640;2022-09-14T08:30:20;100490.47;;;13.97;100.00
74103;BME280;62853;46.166;3.640;2022-09-14T08:32:46;100495.16;;;13.93;100.00
74103;BME280;62853;46.166;3.640;2022-09-14T08:35:11;100499.53;;;14.06;100.00
74103;BME280;62853;46.166;3.640;2022-09-14T08:37:36;100495.44;;;14.13;100.00
74103;BME280;62853;46.166;3.640;2022-09-14T08:40:02;100503.66;;;14.10;100.00
74103;BME280;62853;46.166;3.640;2022-09-14T08:42:28;100504.47;;;14.10;100.00
74103;BME280;62853;46.166;3.640;2022-09-14T08:44:57;100509.16;;;14.07;100.00
74103;BME280;62853;46.166;3.640;2022-09-14T08:47:30;100507.91;;;14.00;100.00
74103;BME280;62853;46.166;3.640;2022-09-14T08:50:11;100500.72;;;14.02;100.00
74103;BME280;62853;46.166;3.640;2022-09-14T08:52:44;100504.47;;;14.10;100.00
74103;BME280;62853;46.166;3.640;2022-09-14T08:57:57;100504.88;;;14.17;100.00
74103;BME280;62853;46.166;3.640;2022-09-14T09:00:35;100505.84;;;14.27;100.00
74103;BME280;62853;46.166;3.640;2022-09-14T09:03:18;100502.88;;;14.32;100.00
74103;BME280;62853;46.166;3.640;2022-09-14T09:05:57;100505.03;;;14.27;100.00
74103;BME280;62853;46.166;3.640;2022-09-14T09:08:43;100498.47;;;14.20;100.00
74103;BME280;62853;46.166;3.640;2022-09-14T09:11:17;100493.69;;;14.25;100.00
74103;BME280;62853;46.166;3.640;2022-09-14T09:13:45;100492.88;;;14.36;100.00
74103;BME280;62853;46.166;3.640;2022-09-14T09:16:16;100494.16;;;14.30;100.00
74103;BME280;62853;46.166;3.640;2022-09-14T09:18:46;100492.69;;;14.14;100.00
74103;BME280;62853;46.166;3.640;2022-09-14T09:21:22;100492.13;;;14.22;100.00
74103;BME280;62853;46.166;3.640;2022-09-14T09:23:49;100493.88;;;14.10;100.00
74103;BME280;62853;46.166;3.640;2022-09-14T09:28:48;100511.97;;;14.17;100.00
74103;BME280;62853;46.166;3.640;2022-09-14T09:31:16;100509.19;;;14.18;100.00
74103;BME280;62853;46.166;3.640;2022-09-14T09:33:43;100497.75;;;14.18;100.00
74103;BME280;62853;46.166;3.640;2022-09-14T09:36:12;100506.34;;;14.32;100.00
74103;BME280;62853;46.166;3.640;2022-09-14T09:38:39;100503.00;;;14.42;100.00
74103;BME280;62853;46.166;3.640;2022-09-14T09:41:28;100506.75;;;14.50;100.00
74103;BME280;62853;46.166;3.640;2022-09-14T09:44:05;100498.06;;;14.48;100.00
74103;BME280;62853;46.166;3.640;2022-09-14T09:46:36;100499.31;;;14.56;100.00
74103;BME280;62853;46.166;3.640;2022-09-14T09:49:14;100508.50;;;14.63;100.00
74103;BME280;62853;46.166;3.640;2022-09-14T09:51:40;100503.63;;;14.57;100.00
74103;BME280;62853;46.166;3.640;2022-09-14T09:56:33;100498.94;;;14.49;100.00
74103;BME280;62853;46.166;3.640;2022-09-14T09:59:00;100490.59;;;14.54;100.00
74103;BME280;62853;46.166;3.640;2022-09-14T10:01:32;100489.75;;;14.42;100.00
74103;BME280;62853;46.166;3.640;2022-09-14T10:04:04;100491.66;;;14.40;100.00
74103;BME280;62853;46.166;3.640;2022-09-14T10:06:30;100493.25;;;14.42;100.00
74103;BME280;62853;46.166;3.640;2022-09-14T10:08:56;100501.69;;;14.47;100.00
74103;BME280;62853;46.166;3.640;2022-09-14T10:11:40;100502.53;;;14.48;100.00
74103;BME280;62853;46.166;3.640;2022-09-14T10:14:20;100500.22;;;14.43;100.00
74103;BME280;62853;46.166;3.640;2022-09-14T10:16:47;100495.91;;;14.42;100.00
74103;BME280;62853;46.166;3.640;2022-09-14T10:19:14;100498.56;;;14.42;100.00
74103;BME280;62853;46.166;3.640;2022-09-14T10:22:02;100502.97;;;14.30;100.00
74103;BME280;62853;46.166;3.640;2022-09-14T10:24:29;100506.31;;;14.21;100.00
74103;BME280;62853;46.166;3.640;2022-09-14T10:26:55;100504.03;;;14.28;100.00
74103;BME280;62853;46.166;3.640;2022-09-14T10:29:34;100506.34;;;14.32;100.00
74103;BME280;62853;46.166;3.640;2022-09-14T10:32:19;100501.06;;;14.32;100.00
74103;BME280;62853;46.166;3.640;2022-09-14T10:34:47;100504.53;;;14.33;100.00
74103;BME280;62853;46.166;3.640;2022-09-14T10:39:57;100501.88;;;14.22;100.00
74103;BME280;62853;46.166;3.640;2022-09-14T10:42:40;100497.31;;;14.24;100.00
74103;BME280;62853;46.166;3.640;2022-09-14T10:45:26;100498.78;;;14.39;100.00
74103;BME280;62853;46.166;3.640;2022-09-14T10:48:21;100493.25;;;14.42;100.00
74103;BME280;62853;46.166;3.640;2022-09-14T10:53:48;100495.19;;;14.40;100.00
74103;BME280;62853;46.166;3.640;2022-09-14T10:56:22;100495.19;;;14.40;100.00
74103;BME280;62853;46.166;3.640;2022-09-14T11:05:04;100501.91;;;14.44;100.00
74103;BME280;62853;46.166;3.640;2022-09-14T11:20:04;100478.53;;;14.38;100.00
74103;BME280;62853;46.166;3.640;2022-09-14T11:24:49;100481.41;;;14.35;100.00
74103;BME280;62853;46.166;3.640;2022-09-14T11:29:51;100480.88;;;14.07;100.00
74103;BME280;62853;46.166;3.640;2022-09-14T11:32:27;100476.31;;;14.09;100.00
74103;BME280;62853;46.166;3.640;2022-09-14T11:35:02;100471.00;;;14.09;100.00
74103;BME280;62853;46.166;3.640;2022-09-14T11:37:43;100472.75;;;14.22;100.00
74103;BME280;62853;46.166;3.640;2022-09-14T11:40:36;100476.06;;;14.12;100.00
74103;BME280;62853;46.166;3.640;2022-09-14T11:43:10;100460.69;;;14.18;100.00
74103;BME280;62853;46.166;3.640;2022-09-14T11:45:45;100456.72;;;14.23;100.00
74103;BME280;62853;46.166;3.640;2022-09-14T11:50:49;100449.13;;;14.30;100.00
74103;BME280;62853;46.166;3.640;2022-09-14T11:53:18;100460.22;;;14.35;100.00
74103;BME280;62853;46.166;3.640;2022-09-14T11:55:46;100466.50;;;14.34;100.00
74103;BME280;62853;46.166;3.640;2022-09-14T11:58:24;100462.28;;;14.43;100.00
74103;BME280;62853;46.166;3.640;2022-09-14T12:03:19;100466.91;;;14.52;100.00
74103;BME280;62853;46.166;3.640;2022-09-14T12:05:46;100459.78;;;14.52;100.00
74103;BME280;62853;46.166;3.640;2022-09-14T12:11:00;100459.19;;;14.49;100.00
74103;BME280;62853;46.166;3.640;2022-09-14T12:13:25;100461.22;;;14.45;100.00
74103;BME280;62853;46.166;3.640;2022-09-14T12:16:01;100465.09;;;14.52;100.00
74103;BME280;62853;46.166;3.640;2022-09-14T12:18:28;100461.94;;;14.47;100.00
74103;BME280;62853;46.166;3.640;2022-09-14T12:21:02;100474.22;;;14.48;100.00
74103;BME280;62853;46.166;3.640;2022-09-14T12:26:09;100482.31;;;14.58;100.00
74103;BME280;62853;46.166;3.640;2022-09-14T12:36:05;100469.28;;;14.55;100.00
74103;BME280;62853;46.166;3.640;2022-09-14T12:40:56;100472.31;;;14.50;100.00
74103;BME280;62853;46.166;3.640;2022-09-14T12:46:07;100454.31;;;14.31;100.00
74103;BME280;62853;46.166;3.640;2022-09-14T12:59:18;100434.38;;;14.39;100.00
74103;BME280;62853;46.166;3.640;2022-09-14T13:01:50;100438.31;;;14.33;100.00
74103;BME280;62853;46.166;3.640;2022-09-14T13:04:24;100436.53;;;14.33;100.00
74103;BME280;62853;46.166;3.640;2022-09-14T13:06:52;100438.53;;;14.30;100.00
74103;BME280;62853;46.166;3.640;2022-09-14T13:09:24;100438.53;;;14.30;100.00
74103;BME280;62853;46.166;3.640;2022-09-14T13:12:04;100446.75;;;14.38;100.00
74103;BME280;62853;46.166;3.640;2022-09-14T13:14:36;100450.25;;;14.50;100.00
74103;BME280;62853;46.166;3.640;2022-09-14T13:17:03;100452.78;;;14.51;100.00
74103;BME280;62853;46.166;3.640;2022-09-14T13:19:32;100445.19;;;14.36;100.00
74103;BME280;62853;46.166;3.640;2022-09-14T13:22:00;100439.28;;;14.32;100.00
74103;BME280;62853;46.166;3.640;2022-09-14T13:24:30;100446.97;;;14.35;100.00
74103;BME280;62853;46.166;3.640;2022-09-14T13:26:58;100440.16;;;14.44;100.00
74103;BME280;62853;46.166;3.640;2022-09-14T13:29:25;100436.50;;;14.45;100.00
74103;BME280;62853;46.166;3.640;2022-09-14T13:31:52;100426.16;;;14.42;100.00
74103;BME280;62853;46.166;3.640;2022-09-14T13:34:25;100428.81;;;14.30;100.00
74103;BME280;62853;46.166;3.640;2022-09-14T13:36:53;100433.63;;;14.37;100.00
74103;BME280;62853;46.166;3.640;2022-09-14T13:39:27;100435.22;;;14.50;100.00
74103;BME280;62853;46.166;3.640;2022-09-14T13:41:54;100433.03;;;14.56;100.00
74103;BME280;62853;46.166;3.640;2022-09-14T13:44:23;100431.03;;;14.59;100.00
74103;BME280;62853;46.166;3.640;2022-09-14T13:46:49;100426.28;;;14.51;100.00
74103;BME280;62853;46.166;3.640;2022-09-14T13:49:15;100418.09;;;14.55;100.00
74103;BME280;62853;46.166;3.640;2022-09-14T13:51:41;100422.09;;;14.49;100.00
74103;BME280;62853;46.166;3.640;2022-09-14T13:54:27;100413.63;;;14.55;100.00
74103;BME280;62853;46.166;3.640;2022-09-14T13:57:21;100413.03;;;14.51;100.00
74103;BME280;62853;46.166;3.640;2022-09-14T14:00:19;100394.75;;;14.60;100.00
74103;BME280;62853;46.166;3.640;2022-09-14T14:02:48;100392.22;;;14.47;100.00
74103;BME280;62853;46.166;3.640;2022-09-14T14:05:26;100390.66;;;14.56;100.00
74103;BME280;62853;46.166;3.640;2022-09-14T14:07:54;100409.31;;;14.54;100.00
74103;BME280;62853;46.166;3.640;2022-09-14T14:10:32;100405.47;;;14.47;100.00
74103;BME280;62853;46.166;3.640;2022-09-14T14:13:00;100405.66;;;14.21;100.00
74103;BME280;62853;46.166;3.640;2022-09-14T14:17:51;100400.59;;;14.18;100.00
74103;BME280;62853;46.166;3.640;2022-09-14T14:25:35;100394.69;;;14.14;100.00
74103;BME280;62853;46.166;3.640;2022-09-14T14:28:15;100385.44;;;14.20;100.00
74103;BME280;62853;46.166;3.640;2022-09-14T14:30:41;100391.47;;;14.22;100.00
74103;BME280;62853;46.166;3.640;2022-09-14T14:33:12;100389.78;;;14.32;100.00
74103;BME280;62853;46.166;3.640;2022-09-14T14:35:38;100381.09;;;14.42;100.00